Date,TemperatureHighF,TemperatureAvgF,TemperatureLowF,DewpointHighF,DewpointAvgF,DewpointLowF,HumidityHigh,HumidityAvg,HumidityLow,PressureMaxIn,PressureMinIn,WindSpeedMaxMPH,WindSpeedAvgMPH,GustSpeedMaxMPH,PrecipitationSumIn
2013-3-1,44,37,32,35,30,25,95,77,58,29.61,29.42,11,2,16,0.01
2013-3-2,38,34,28,26,25,23,87,70,60,29.60,29.53,11,2,16,0.00
2013-3-3,37,30,27,26,21,16,88,69,48,29.59,29.51,13,3,15,0.00
2013-3-4,42,33,26,24,20,17,76,61,46,29.74,29.57,14,2,22,0.00
2013-3-5,44,36,28,28,25,21,78,65,50,29.87,29.74,11,3,18,0.00
2013-3-6,43,37,32,36,29,26,84,73,59,29.87,29.77,27,7,32,0.00
2013-3-7,37,34,31,31,29,25,94,82,65,29.94,29.83,19,6,25,0.00
2013-3-8,40,33,29,32,29,26,95,86,64,30.07,29.86,19,4,26,0.01
2013-3-9,51,41,30,27,23,18,73,51,27,30.15,30.05,22,4,23,0.00
2013-3-10,53,40,28,35,29,21,86,64,39,30.22,30.09,8,1,13,0.00
2013-3-11,54,44,34,46,38,31,91,80,58,30.14,29.89,11,2,15,0.00
2013-3-12,55,51,40,53,48,36,95,90,82,29.89,29.61,15,3,20,0.75
2013-3-13,50,41,34,37,30,24,87,68,38,29.91,29.80,9,2,14,0.00
2013-3-14,36,31,25,28,14,8,79,50,33,29.96,29.87,18,3,23,0.00
2013-3-15,41,34,25,32,20,10,82,57,43,29.98,29.73,10,2,17,0.00
2013-3-16,38,32,28,28,22,15,90,68,43,29.94,29.80,10,1,15,0.00
2013-3-17,38,32,24,28,15,8,89,53,30,30.36,29.95,15,3,17,0.00
2013-3-18,36,28,22,26,13,6,93,56,34,30.46,30.10,10,3,16,0.00
2013-3-19,38,33,28,34,30,22,95,90,63,30.10,29.73,9,2,16,0.22
2013-3-20,42,34,27,24,20,17,77,59,37,29.88,29.80,15,2,19,0.07
2013-3-21,38,32,27,24,18,11,80,58,36,29.86,29.65,14,2,19,0.00
2013-3-22,40,32,24,24,20,12,74,59,47,29.88,29.74,14,2,20,0.00
2013-3-23,43,37,31,26,21,17,69,54,38,30.09,29.84,13,3,24,0.00
2013-3-24,43,36,28,24,21,17,72,56,43,30.12,29.91,15,2,17,0.00
2013-3-25,46,38,31,28,24,22,75,59,41,29.92,29.65,16,5,22,0.00
2013-3-26,48,40,34,31,27,22,75,59,42,30.03,29.77,15,2,16,0.00
2013-3-27,52,41,28,29,25,21,81,55,31,30.13,30.02,10,1,16,0.00
2013-3-28,48,40,34,34,30,26,79,67,55,30.28,30.13,11,2,17,0.00
2013-3-29,52,44,33,32,29,26,78,55,38,30.32,30.22,14,2,14,0.00
2013-3-30,57,46,33,33,26,19,85,49,24,30.34,30.23,9,1,17,0.00
2013-3-31,57,44,30,41,29,20,94,59,31,30.30,29.87,14,2,24,0.16